Terminal Aerodrome Forecast
Issued by NWS

Current Version | Previous Version | Text Only | Print | Product List | Glossary Off
Versions: 1 2 3 4 5 6 7 8 9 10 11 12 13 14 15 16 17 18 19 20 21

000
FTUS41 KILN 241100
TAFLUK
TAF
KLUK 241139Z 2412/2512 VRB03KT 1SM BR SCT002 OVC080
      TEMPO 2412/2413 1/2SM FG BKN002
     FM241400 19004KT 3SM BR VCSH OVC018
     FM241600 20007KT P6SM BKN018 OVC080
     FM241900 23012G20KT P6SM -SHRA OVC018
     FM242200 25020G35KT P6SM OVC022
     FM250200 24016G26KT P6SM OVC022
     FM250800 25012G20KT P6SM VCSH OVC025=

USA.gov is the U.S. government's official web portal to all federal, state and local government web resources and services.